sensor_id;sensor_type;location;lat;lon;timestamp;P1;durP1;ratioP1;P2;durP2;ratioP2
20857;SDS011;10589;53.636;10.012;2023-04-03T03:45:08;5.47;;;2.50;;
20857;SDS011;10589;53.636;10.012;2023-04-03T03:47:34;6.93;;;2.30;;
20857;SDS011;10589;53.636;10.012;2023-04-03T03:50:00;5.83;;;2.10;;
20857;SDS011;10589;53.636;10.012;2023-04-03T03:52:26;6.13;;;2.60;;
20857;SDS011;10589;53.636;10.012;2023-04-03T03:54:52;10.20;;;2.60;;
20857;SDS011;10589;53.636;10.012;2023-04-03T03:57:17;6.17;;;2.47;;
20857;SDS011;10589;53.636;10.012;2023-04-03T03:59:43;6.87;;;2.43;;
20857;SDS011;10589;53.636;10.012;2023-04-03T04:02:09;8.87;;;2.67;;
20857;SDS011;10589;53.636;10.012;2023-04-03T04:04:36;5.63;;;2.67;;
20857;SDS011;10589;53.636;10.012;2023-04-03T04:07:02;4.93;;;2.40;;
20857;SDS011;10589;53.636;10.012;2023-04-03T04:09:29;4.60;;;2.23;;
20857;SDS011;10589;53.636;10.012;2023-04-03T04:11:55;4.43;;;2.10;;
20857;SDS011;10589;53.636;10.012;2023-04-03T04:14:20;6.40;;;2.80;;
20857;SDS011;10589;53.636;10.012;2023-04-03T04:16:47;4.10;;;2.50;;
20857;SDS011;10589;53.636;10.012;2023-04-03T04:19:12;8.53;;;2.77;;
20857;SDS011;10589;53.636;10.012;2023-04-03T04:21:38;8.23;;;2.70;;
20857;SDS011;10589;53.636;10.012;2023-04-03T04:24:05;6.70;;;2.90;;
20857;SDS011;10589;53.636;10.012;2023-04-03T04:26:38;4.40;;;2.37;;
20857;SDS011;10589;53.636;10.012;2023-04-03T04:29:03;10.63;;;2.53;;
20857;SDS011;10589;53.636;10.012;2023-04-03T04:31:51;6.87;;;2.20;;
20857;SDS011;10589;53.636;10.012;2023-04-03T04:34:18;8.47;;;3.10;;
20857;SDS011;10589;53.636;10.012;2023-04-03T04:36:53;6.10;;;2.40;;
20857;SDS011;10589;53.636;10.012;2023-04-03T04:39:18;4.80;;;2.43;;
20857;SDS011;10589;53.636;10.012;2023-04-03T04:41:44;9.03;;;2.10;;
20857;SDS011;10589;53.636;10.012;2023-04-03T04:44:09;3.40;;;2.07;;
20857;SDS011;10589;53.636;10.012;2023-04-03T04:46:36;6.97;;;2.57;;
20857;SDS011;10589;53.636;10.012;2023-04-03T04:49:02;10.47;;;2.80;;
20857;SDS011;10589;53.636;10.012;2023-04-03T04:51:28;5.90;;;2.80;;
20857;SDS011;10589;53.636;10.012;2023-04-03T04:53:55;9.17;;;2.63;;
20857;SDS011;10589;53.636;10.012;2023-04-03T04:56:21;6.40;;;2.30;;
20857;SDS011;10589;53.636;10.012;2023-04-03T04:58:47;11.80;;;2.57;;
20857;SDS011;10589;53.636;10.012;2023-04-03T05:04:10;5.40;;;2.50;;
20857;SDS011;10589;53.636;10.012;2023-04-03T05:06:40;7.07;;;2.80;;
20857;SDS011;10589;53.636;10.012;2023-04-03T05:09:06;6.27;;;2.67;;
20857;SDS011;10589;53.636;10.012;2023-04-03T05:11:32;6.60;;;2.90;;
20857;SDS011;10589;53.636;10.012;2023-04-03T05:13:57;7.13;;;2.83;;
20857;SDS011;10589;53.636;10.012;2023-04-03T05:16:23;5.03;;;2.47;;
20857;SDS011;10589;53.636;10.012;2023-04-03T05:18:49;6.70;;;3.10;;
20857;SDS011;10589;53.636;10.012;2023-04-03T05:21:14;13.20;;;3.20;;
20857;SDS011;10589;53.636;10.012;2023-04-03T05:23:40;8.27;;;2.93;;
20857;SDS011;10589;53.636;10.012;2023-04-03T05:26:06;6.00;;;2.77;;
20857;SDS011;10589;53.636;10.012;2023-04-03T05:28:32;7.77;;;2.60;;
20857;SDS011;10589;53.636;10.012;2023-04-03T05:30:57;6.93;;;3.00;;
20857;SDS011;10589;53.636;10.012;2023-04-03T05:33:24;9.00;;;2.97;;
20857;SDS011;10589;53.636;10.012;2023-04-03T05:35:51;7.40;;;2.33;;
20857;SDS011;10589;53.636;10.012;2023-04-03T05:38:17;9.17;;;3.60;;
20857;SDS011;10589;53.636;10.012;2023-04-03T05:40:43;6.07;;;3.57;;
20857;SDS011;10589;53.636;10.012;2023-04-03T05:43:09;8.93;;;3.20;;
20857;SDS011;10589;53.636;10.012;2023-04-03T05:45:35;8.80;;;3.10;;
20857;SDS011;10589;53.636;10.012;2023-04-03T05:48:00;7.60;;;3.20;;
20857;SDS011;10589;53.636;10.012;2023-04-03T05:50:26;8.47;;;3.50;;
20857;SDS011;10589;53.636;10.012;2023-04-03T05:52:52;9.10;;;3.30;;
20857;SDS011;10589;53.636;10.012;2023-04-03T05:55:21;6.37;;;2.97;;
20857;SDS011;10589;53.636;10.012;2023-04-03T05:57:47;9.40;;;3.07;;
20857;SDS011;10589;53.636;10.012;2023-04-03T06:00:13;10.00;;;3.37;;
20857;SDS011;10589;53.636;10.012;2023-04-03T06:02:40;8.43;;;3.60;;
20857;SDS011;10589;53.636;10.012;2023-04-03T06:05:07;11.90;;;3.87;;
20857;SDS011;10589;53.636;10.012;2023-04-03T06:07:34;11.10;;;3.77;;
20857;SDS011;10589;53.636;10.012;2023-04-03T06:09:59;8.73;;;3.67;;
20857;SDS011;10589;53.636;10.012;2023-04-03T06:12:26;16.77;;;4.43;;
20857;SDS011;10589;53.636;10.012;2023-04-03T06:14:54;13.63;;;3.90;;
20857;SDS011;10589;53.636;10.012;2023-04-03T06:17:20;11.83;;;4.00;;
20857;SDS011;10589;53.636;10.012;2023-04-03T06:19:45;12.80;;;3.80;;
20857;SDS011;10589;53.636;10.012;2023-04-03T06:22:11;17.47;;;3.47;;
20857;SDS011;10589;53.636;10.012;2023-04-03T06:24:37;8.40;;;3.20;;
20857;SDS011;10589;53.636;10.012;2023-04-03T06:27:03;6.37;;;3.50;;
20857;SDS011;10589;53.636;10.012;2023-04-03T06:29:29;12.90;;;4.27;;
20857;SDS011;10589;53.636;10.012;2023-04-03T06:31:55;6.73;;;3.30;;
20857;SDS011;10589;53.636;10.012;2023-04-03T06:34:21;8.50;;;3.30;;
20857;SDS011;10589;53.636;10.012;2023-04-03T06:36:47;8.17;;;3.17;;
20857;SDS011;10589;53.636;10.012;2023-04-03T06:39:14;10.77;;;2.80;;
20857;SDS011;10589;53.636;10.012;2023-04-03T06:41:41;14.07;;;4.10;;
20857;SDS011;10589;53.636;10.012;2023-04-03T06:44:08;16.63;;;4.50;;
20857;SDS011;10589;53.636;10.012;2023-04-03T06:46:36;12.50;;;4.10;;
20857;SDS011;10589;53.636;10.012;2023-04-03T06:49:02;10.53;;;3.00;;
20857;SDS011;10589;53.636;10.012;2023-04-03T06:51:29;6.70;;;2.63;;
20857;SDS011;10589;53.636;10.012;2023-04-03T06:53:56;11.07;;;3.80;;
20857;SDS011;10589;53.636;10.012;2023-04-03T06:56:23;10.03;;;2.90;;
20857;SDS011;10589;53.636;10.012;2023-04-03T06:58:50;7.80;;;2.13;;
20857;SDS011;10589;53.636;10.012;2023-04-03T07:01:16;15.23;;;3.93;;
20857;SDS011;10589;53.636;10.012;2023-04-03T07:03:55;10.37;;;3.57;;
20857;SDS011;10589;53.636;10.012;2023-04-03T07:06:21;10.80;;;3.40;;
20857;SDS011;10589;53.636;10.012;2023-04-03T07:08:47;16.33;;;5.33;;
20857;SDS011;10589;53.636;10.012;2023-04-03T07:11:16;6.13;;;2.80;;
20857;SDS011;10589;53.636;10.012;2023-04-03T07:13:42;8.80;;;2.57;;
20857;SDS011;10589;53.636;10.012;2023-04-03T07:16:08;7.10;;;2.00;;
20857;SDS011;10589;53.636;10.012;2023-04-03T07:18:34;4.00;;;1.83;;
20857;SDS011;10589;53.636;10.012;2023-04-03T07:21:00;5.57;;;1.60;;
20857;SDS011;10589;53.636;10.012;2023-04-03T07:23:26;4.63;;;1.40;;
20857;SDS011;10589;53.636;10.012;2023-04-03T07:25:52;4.67;;;1.53;;
20857;SDS011;10589;53.636;10.012;2023-04-03T07:28:19;5.00;;;1.67;;
20857;SDS011;10589;53.636;10.012;2023-04-03T07:30:51;3.87;;;1.40;;
20857;SDS011;10589;53.636;10.012;2023-04-03T07:33:19;5.40;;;1.50;;
20857;SDS011;10589;53.636;10.012;2023-04-03T07:35:47;6.30;;;1.67;;
20857;SDS011;10589;53.636;10.012;2023-04-03T07:38:13;3.80;;;1.33;;
20857;SDS011;10589;53.636;10.012;2023-04-03T07:40:39;9.17;;;1.23;;
20857;SDS011;10589;53.636;10.012;2023-04-03T07:43:05;7.07;;;1.10;;
20857;SDS011;10589;53.636;10.012;2023-04-03T07:45:31;6.43;;;1.23;;
20857;SDS011;10589;53.636;10.012;2023-04-03T07:47:59;3.80;;;0.80;;
20857;SDS011;10589;53.636;10.012;2023-04-03T07:50:26;3.03;;;1.03;;
20857;SDS011;10589;53.636;10.012;2023-04-03T07:52:52;4.63;;;1.00;;
20857;SDS011;10589;53.636;10.012;2023-04-03T07:55:19;3.77;;;1.00;;
20857;SDS011;10589;53.636;10.012;2023-04-03T07:57:45;4.30;;;1.10;;
20857;SDS011;10589;53.636;10.012;2023-04-03T08:00:10;5.50;;;1.20;;
20857;SDS011;10589;53.636;10.012;2023-04-03T08:02:37;2.60;;;1.03;;
20857;SDS011;10589;53.636;10.012;2023-04-03T08:05:02;8.57;;;1.27;;
20857;SDS011;10589;53.636;10.012;2023-04-03T08:07:30;6.97;;;1.10;;
20857;SDS011;10589;53.636;10.012;2023-04-03T08:09:55;6.00;;;1.37;;
20857;SDS011;10589;53.636;10.012;2023-04-03T08:12:22;3.13;;;1.10;;
20857;SDS011;10589;53.636;10.012;2023-04-03T08:14:47;4.70;;;1.27;;
20857;SDS011;10589;53.636;10.012;2023-04-03T08:17:13;3.87;;;0.90;;
20857;SDS011;10589;53.636;10.012;2023-04-03T08:19:38;3.67;;;0.90;;
20857;SDS011;10589;53.636;10.012;2023-04-03T08:22:05;3.77;;;0.60;;
20857;SDS011;10589;53.636;10.012;2023-04-03T08:24:31;7.50;;;1.10;;
20857;SDS011;10589;53.636;10.012;2023-04-03T08:26:57;3.17;;;0.90;;
20857;SDS011;10589;53.636;10.012;2023-04-03T08:29:23;2.93;;;1.07;;
20857;SDS011;10589;53.636;10.012;2023-04-03T08:31:49;4.23;;;1.00;;
20857;SDS011;10589;53.636;10.012;2023-04-03T08:34:15;4.90;;;1.03;;
20857;SDS011;10589;53.636;10.012;2023-04-03T08:36:41;3.67;;;0.93;;
20857;SDS011;10589;53.636;10.012;2023-04-03T08:39:07;1.17;;;0.60;;
20857;SDS011;10589;53.636;10.012;2023-04-03T08:46:35;2.50;;;0.77;;
20857;SDS011;10589;53.636;10.012;2023-04-03T08:49:09;4.50;;;0.83;;
20857;SDS011;10589;53.636;10.012;2023-04-03T08:51:43;2.80;;;0.80;;
20857;SDS011;10589;53.636;10.012;2023-04-03T08:54:21;2.27;;;0.70;;
20857;SDS011;10589;53.636;10.012;2023-04-03T08:56:53;3.60;;;0.90;;
20857;SDS011;10589;53.636;10.012;2023-04-03T08:59:23;5.37;;;0.87;;
20857;SDS011;10589;53.636;10.012;2023-04-03T09:01:57;5.23;;;0.63;;
20857;SDS011;10589;53.636;10.012;2023-04-03T09:04:27;5.03;;;1.00;;
20857;SDS011;10589;53.636;10.012;2023-04-03T09:06:58;2.83;;;0.70;;
20857;SDS011;10589;53.636;10.012;2023-04-03T09:09:33;1.50;;;0.53;;
20857;SDS011;10589;53.636;10.012;2023-04-03T09:12:23;1.33;;;0.60;;
20857;SDS011;10589;53.636;10.012;2023-04-03T09:20:24;2.00;;;0.80;;
20857;SDS011;10589;53.636;10.012;2023-04-03T09:22:58;1.83;;;0.80;;
20857;SDS011;10589;53.636;10.012;2023-04-03T09:25:27;2.97;;;0.70;;
20857;SDS011;10589;53.636;10.012;2023-04-03T09:28:01;3.23;;;0.90;;
20857;SDS011;10589;53.636;10.012;2023-04-03T09:30:27;3.83;;;0.90;;
20857;SDS011;10589;53.636;10.012;2023-04-03T09:32:55;1.90;;;0.70;;
20857;SDS011;10589;53.636;10.012;2023-04-03T09:37:50;2.20;;;0.60;;
20857;SDS011;10589;53.636;10.012;2023-04-03T09:45:47;3.90;;;0.77;;
20857;SDS011;10589;53.636;10.012;2023-04-03T09:53:31;2.33;;;0.63;;
20857;SDS011;10589;53.636;10.012;2023-04-03T09:55:59;3.83;;;0.80;;
20857;SDS011;10589;53.636;10.012;2023-04-03T10:00:55;2.53;;;0.77;;
20857;SDS011;10589;53.636;10.012;2023-04-03T10:03:30;1.87;;;0.60;;
20857;SDS011;10589;53.636;10.012;2023-04-03T10:05:58;2.80;;;0.70;;
20857;SDS011;10589;53.636;10.012;2023-04-03T10:08:33;2.80;;;0.80;;
20857;SDS011;10589;53.636;10.012;2023-04-03T10:13:31;4.47;;;0.53;;
20857;SDS011;10589;53.636;10.012;2023-04-03T10:16:00;4.67;;;0.80;;
20857;SDS011;10589;53.636;10.012;2023-04-03T10:18:32;2.33;;;0.70;;
20857;SDS011;10589;53.636;10.012;2023-04-03T10:21:20;3.63;;;0.60;;
20857;SDS011;10589;53.636;10.012;2023-04-03T10:26:57;3.23;;;0.50;;
20857;SDS011;10589;53.636;10.012;2023-04-03T10:29:38;2.60;;;0.73;;
20857;SDS011;10589;53.636;10.012;2023-04-03T10:40:33;2.17;;;0.70;;
20857;SDS011;10589;53.636;10.012;2023-04-03T10:43:15;1.53;;;0.70;;
20857;SDS011;10589;53.636;10.012;2023-04-03T10:56:52;3.80;;;0.60;;
20857;SDS011;10589;53.636;10.012;2023-04-03T10:59:26;3.43;;;0.83;;
20857;SDS011;10589;53.636;10.012;2023-04-03T11:02:06;3.43;;;0.90;;
20857;SDS011;10589;53.636;10.012;2023-04-03T11:04:48;3.73;;;0.90;;
20857;SDS011;10589;53.636;10.012;2023-04-03T11:07:19;1.87;;;0.70;;
20857;SDS011;10589;53.636;10.012;2023-04-03T11:09:48;2.27;;;0.80;;
20857;SDS011;10589;53.636;10.012;2023-04-03T11:15:01;3.30;;;0.70;;
20857;SDS011;10589;53.636;10.012;2023-04-03T11:17:48;4.30;;;1.00;;
20857;SDS011;10589;53.636;10.012;2023-04-03T11:20:28;3.20;;;0.80;;
20857;SDS011;10589;53.636;10.012;2023-04-03T11:23:01;6.60;;;1.10;;
20857;SDS011;10589;53.636;10.012;2023-04-03T11:25:31;3.07;;;1.00;;
20857;SDS011;10589;53.636;10.012;2023-04-03T11:28:03;3.30;;;0.90;;
20857;SDS011;10589;53.636;10.012;2023-04-03T11:35:51;3.17;;;0.60;;
20857;SDS011;10589;53.636;10.012;2023-04-03T11:38:21;3.97;;;0.83;;
20857;SDS011;10589;53.636;10.012;2023-04-03T11:40:56;1.43;;;0.70;;
20857;SDS011;10589;53.636;10.012;2023-04-03T11:43:25;2.90;;;0.83;;
20857;SDS011;10589;53.636;10.012;2023-04-03T11:51:01;2.77;;;0.60;;
20857;SDS011;10589;53.636;10.012;2023-04-03T11:53:47;3.40;;;0.93;;
20857;SDS011;10589;53.636;10.012;2023-04-03T11:59:14;1.80;;;0.60;;
20857;SDS011;10589;53.636;10.012;2023-04-03T12:01:49;2.63;;;0.80;;
20857;SDS011;10589;53.636;10.012;2023-04-03T12:04:20;2.63;;;0.53;;
20857;SDS011;10589;53.636;10.012;2023-04-03T12:12:00;1.93;;;0.70;;
20857;SDS011;10589;53.636;10.012;2023-04-03T12:14:46;1.40;;;0.73;;
20857;SDS011;10589;53.636;10.012;2023-04-03T12:17:19;2.97;;;0.60;;
20857;SDS011;10589;53.636;10.012;2023-04-03T12:19:51;1.47;;;0.60;;
20857;SDS011;10589;53.636;10.012;2023-04-03T12:22:18;1.27;;;0.67;;
20857;SDS011;10589;53.636;10.012;2023-04-03T12:24:49;2.00;;;0.70;;
20857;SDS011;10589;53.636;10.012;2023-04-03T12:27:38;6.10;;;0.90;;
20857;SDS011;10589;53.636;10.012;2023-04-03T12:30:12;4.93;;;0.97;;
20857;SDS011;10589;53.636;10.012;2023-04-03T12:48:48;2.20;;;0.60;;
20857;SDS011;10589;53.636;10.012;2023-04-03T12:54:03;2.63;;;0.83;;
20857;SDS011;10589;53.636;10.012;2023-04-03T12:56:40;1.90;;;0.80;;
20857;SDS011;10589;53.636;10.012;2023-04-03T12:59:39;2.60;;;0.50;;
20857;SDS011;10589;53.636;10.012;2023-04-03T13:01:58;4.23;;;0.90;;
20857;SDS011;10589;53.636;10.012;2023-04-03T13:04:29;1.27;;;0.63;;
20857;SDS011;10589;53.636;10.012;2023-04-03T13:06:56;3.77;;;0.60;;
20857;SDS011;10589;53.636;10.012;2023-04-03T13:09:23;1.90;;;0.50;;
20857;SDS011;10589;53.636;10.012;2023-04-03T13:11:58;2.47;;;0.80;;
20857;SDS011;10589;53.636;10.012;2023-04-03T13:14:27;3.78;;;0.75;;
20857;SDS011;10589;53.636;10.012;2023-04-03T13:19:37;1.58;;;0.60;;
20857;SDS011;10589;53.636;10.012;2023-04-03T13:22:05;1.50;;;0.85;;
20857;SDS011;10589;53.636;10.012;2023-04-03T13:24:36;3.00;;;0.65;;
20857;SDS011;10589;53.636;10.012;2023-04-03T13:27:04;2.53;;;0.73;;
20857;SDS011;10589;53.636;10.012;2023-04-03T13:29:35;3.15;;;0.73;;
20857;SDS011;10589;53.636;10.012;2023-04-03T13:32:03;2.35;;;0.85;;
20857;SDS011;10589;53.636;10.012;2023-04-03T13:34:38;2.97;;;0.80;;
20857;SDS011;10589;53.636;10.012;2023-04-03T13:37:06;2.92;;;0.80;;
20857;SDS011;10589;53.636;10.012;2023-04-03T13:39:43;2.23;;;0.90;;
20857;SDS011;10589;53.636;10.012;2023-04-03T13:42:42;3.57;;;0.97;;
20857;SDS011;10589;53.636;10.012;2023-04-03T13:47:50;2.73;;;0.70;;
20857;SDS011;10589;53.636;10.012;2023-04-03T13:50:22;1.67;;;0.77;;
20857;SDS011;10589;53.636;10.012;2023-04-03T13:53:00;1.20;;;0.60;;
20857;SDS011;10589;53.636;10.012;2023-04-03T14:00:48;2.35;;;0.70;;
20857;SDS011;10589;53.636;10.012;2023-04-03T14:03:29;4.05;;;1.02;;
20857;SDS011;10589;53.636;10.012;2023-04-03T14:06:06;1.95;;;0.82;;
20857;SDS011;10589;53.636;10.012;2023-04-03T14:08:35;1.63;;;0.73;;
20857;SDS011;10589;53.636;10.012;2023-04-03T14:11:01;3.40;;;0.77;;
20857;SDS011;10589;53.636;10.012;2023-04-03T14:13:29;1.55;;;0.60;;
20857;SDS011;10589;53.636;10.012;2023-04-03T14:15:56;1.00;;;0.65;;
20857;SDS011;10589;53.636;10.012;2023-04-03T14:18:22;2.58;;;0.65;;
20857;SDS011;10589;53.636;10.012;2023-04-03T14:20:48;2.10;;;0.60;;
20857;SDS011;10589;53.636;10.012;2023-04-03T14:23:14;4.00;;;0.90;;
20857;SDS011;10589;53.636;10.012;2023-04-03T14:25:40;2.25;;;0.80;;
20857;SDS011;10589;53.636;10.012;2023-04-03T14:28:39;3.80;;;1.00;;
20857;SDS011;10589;53.636;10.012;2023-04-03T14:30:58;2.45;;;0.90;;
20857;SDS011;10589;53.636;10.012;2023-04-03T14:33:25;3.05;;;0.98;;
20857;SDS011;10589;53.636;10.012;2023-04-03T14:35:52;2.93;;;0.80;;
20857;SDS011;10589;53.636;10.012;2023-04-03T14:38:25;5.43;;;0.93;;
20857;SDS011;10589;53.636;10.012;2023-04-03T14:40:53;4.07;;;0.80;;
20857;SDS011;10589;53.636;10.012;2023-04-03T14:43:19;2.65;;;0.80;;
20857;SDS011;10589;53.636;10.012;2023-04-03T14:45:46;4.22;;;1.00;;
20857;SDS011;10589;53.636;10.012;2023-04-03T14:48:18;3.95;;;0.93;;
20857;SDS011;10589;53.636;10.012;2023-04-03T14:50:46;2.20;;;0.93;;
20857;SDS011;10589;53.636;10.012;2023-04-03T14:53:13;2.10;;;0.90;;
20857;SDS011;10589;53.636;10.012;2023-04-03T14:55:40;3.07;;;1.00;;
20857;SDS011;10589;53.636;10.012;2023-04-03T14:58:14;2.47;;;0.80;;
20857;SDS011;10589;53.636;10.012;2023-04-03T15:00:41;1.33;;;0.70;;
20857;SDS011;10589;53.636;10.012;2023-04-03T15:03:18;2.33;;;0.70;;
20857;SDS011;10589;53.636;10.012;2023-04-03T15:05:46;5.63;;;1.00;;
20857;SDS011;10589;53.636;10.012;2023-04-03T15:08:17;2.73;;;0.90;;
20857;SDS011;10589;53.636;10.012;2023-04-03T15:10:48;2.13;;;0.80;;
20857;SDS011;10589;53.636;10.012;2023-04-03T15:13:17;2.30;;;1.00;;
20857;SDS011;10589;53.636;10.012;2023-04-03T15:15:44;3.43;;;0.70;;
20857;SDS011;10589;53.636;10.012;2023-04-03T15:18:17;2.17;;;0.93;;
20857;SDS011;10589;53.636;10.012;2023-04-03T15:20:46;3.37;;;0.90;;
20857;SDS011;10589;53.636;10.012;2023-04-03T15:23:13;5.47;;;0.90;;
20857;SDS011;10589;53.636;10.012;2023-04-03T15:25:40;5.07;;;1.00;;
20857;SDS011;10589;53.636;10.012;2023-04-03T15:28:08;3.27;;;1.00;;
20857;SDS011;10589;53.636;10.012;2023-04-03T15:30:40;2.27;;;0.73;;
20857;SDS011;10589;53.636;10.012;2023-04-03T15:33:06;3.73;;;1.20;;
20857;SDS011;10589;53.636;10.012;2023-04-03T15:35:33;2.67;;;0.80;;
20857;SDS011;10589;53.636;10.012;2023-04-03T15:37:58;3.10;;;1.10;;
20857;SDS011;10589;53.636;10.012;2023-04-03T15:40:24;7.50;;;1.07;;
20857;SDS011;10589;53.636;10.012;2023-04-03T15:42:50;3.73;;;1.23;;
20857;SDS011;10589;53.636;10.012;2023-04-03T15:45:16;4.10;;;0.80;;
20857;SDS011;10589;53.636;10.012;2023-04-03T15:47:41;3.17;;;0.97;;
20857;SDS011;10589;53.636;10.012;2023-04-03T15:50:08;3.37;;;1.10;;
20857;SDS011;10589;53.636;10.012;2023-04-03T15:52:34;5.00;;;1.17;;
20857;SDS011;10589;53.636;10.012;2023-04-03T15:55:00;2.90;;;1.30;;
20857;SDS011;10589;53.636;10.012;2023-04-03T15:57:26;3.30;;;1.30;;
20857;SDS011;10589;53.636;10.012;2023-04-03T15:59:52;4.50;;;0.93;;
20857;SDS011;10589;53.636;10.012;2023-04-03T16:02:17;2.63;;;1.00;;
20857;SDS011;10589;53.636;10.012;2023-04-03T16:04:43;3.10;;;1.13;;
20857;SDS011;10589;53.636;10.012;2023-04-03T16:07:09;2.53;;;0.80;;
20857;SDS011;10589;53.636;10.012;2023-04-03T16:09:35;4.87;;;0.73;;
20857;SDS011;10589;53.636;10.012;2023-04-03T16:12:02;4.80;;;0.90;;
20857;SDS011;10589;53.636;10.012;2023-04-03T16:14:28;3.23;;;1.10;;
20857;SDS011;10589;53.636;10.012;2023-04-03T16:16:55;7.07;;;1.30;;
20857;SDS011;10589;53.636;10.012;2023-04-03T16:19:21;2.80;;;1.20;;
20857;SDS011;10589;53.636;10.012;2023-04-03T16:21:48;3.00;;;1.00;;
20857;SDS011;10589;53.636;10.012;2023-04-03T16:24:14;4.13;;;1.10;;
20857;SDS011;10589;53.636;10.012;2023-04-03T16:26:39;2.20;;;0.83;;
20857;SDS011;10589;53.636;10.012;2023-04-03T16:29:05;3.40;;;1.20;;
20857;SDS011;10589;53.636;10.012;2023-04-03T16:31:32;6.40;;;0.90;;
20857;SDS011;10589;53.636;10.012;2023-04-03T16:33:58;4.87;;;0.83;;
20857;SDS011;10589;53.636;10.012;2023-04-03T16:36:25;4.37;;;0.90;;
20857;SDS011;10589;53.636;10.012;2023-04-03T16:38:51;3.30;;;1.07;;
20857;SDS011;10589;53.636;10.012;2023-04-03T16:41:16;3.40;;;1.07;;
20857;SDS011;10589;53.636;10.012;2023-04-03T16:43:42;3.10;;;1.10;;
20857;SDS011;10589;53.636;10.012;2023-04-03T16:46:08;2.80;;;0.97;;
20857;SDS011;10589;53.636;10.012;2023-04-03T16:48:33;4.73;;;1.00;;
20857;SDS011;10589;53.636;10.012;2023-04-03T16:51:00;4.33;;;1.37;;
20857;SDS011;10589;53.636;10.012;2023-04-03T16:53:25;1.90;;;0.90;;
20857;SDS011;10589;53.636;10.012;2023-04-03T16:55:52;3.10;;;1.00;;
20857;SDS011;10589;53.636;10.012;2023-04-03T16:58:18;3.13;;;1.17;;
20857;SDS011;10589;53.636;10.012;2023-04-03T17:00:44;2.73;;;0.90;;
20857;SDS011;10589;53.636;10.012;2023-04-03T17:03:10;4.47;;;1.07;;
20857;SDS011;10589;53.636;10.012;2023-04-03T17:05:35;3.73;;;1.07;;
20857;SDS011;10589;53.636;10.012;2023-04-03T17:08:01;4.30;;;1.10;;
20857;SDS011;10589;53.636;10.012;2023-04-03T17:10:27;3.37;;;1.13;;
20857;SDS011;10589;53.636;10.012;2023-04-03T17:12:53;2.37;;;1.27;;
20857;SDS011;10589;53.636;10.012;2023-04-03T17:15:19;4.90;;;1.50;;
20857;SDS011;10589;53.636;10.012;2023-04-03T17:17:46;2.50;;;1.10;;
20857;SDS011;10589;53.636;10.012;2023-04-03T17:20:12;2.93;;;1.10;;
20857;SDS011;10589;53.636;10.012;2023-04-03T17:22:38;2.77;;;1.03;;
20857;SDS011;10589;53.636;10.012;2023-04-03T17:25:04;6.03;;;1.20;;
20857;SDS011;10589;53.636;10.012;2023-04-03T17:27:30;3.27;;;1.20;;
20857;SDS011;10589;53.636;10.012;2023-04-03T17:29:56;2.93;;;1.20;;
20857;SDS011;10589;53.636;10.012;2023-04-03T17:32:22;4.60;;;1.20;;
20857;SDS011;10589;53.636;10.012;2023-04-03T17:34:50;4.03;;;1.13;;
20857;SDS011;10589;53.636;10.012;2023-04-03T17:37:15;3.00;;;0.93;;
20857;SDS011;10589;53.636;10.012;2023-04-03T17:39:41;2.97;;;1.00;;
20857;SDS011;10589;53.636;10.012;2023-04-03T17:42:07;3.27;;;1.10;;
20857;SDS011;10589;53.636;10.012;2023-04-03T17:44:32;4.87;;;1.03;;
20857;SDS011;10589;53.636;10.012;2023-04-03T17:46:58;2.10;;;1.20;;
20857;SDS011;10589;53.636;10.012;2023-04-03T17:49:24;4.57;;;1.77;;
20857;SDS011;10589;53.636;10.012;2023-04-03T17:51:49;3.80;;;1.63;;
20857;SDS011;10589;53.636;10.012;2023-04-03T17:54:15;4.73;;;1.97;;
20857;SDS011;10589;53.636;10.012;2023-04-03T17:56:41;4.10;;;1.73;;
20857;SDS011;10589;53.636;10.012;2023-04-03T17:59:11;6.67;;;2.07;;
20857;SDS011;10589;53.636;10.012;2023-04-03T18:01:38;4.90;;;2.03;;
20857;SDS011;10589;53.636;10.012;2023-04-03T18:04:05;3.70;;;1.60;;
20857;SDS011;10589;53.636;10.012;2023-04-03T18:06:41;10.90;;;6.23;;
20857;SDS011;10589;53.636;10.012;2023-04-03T18:09:20;8.10;;;2.00;;
20857;SDS011;10589;53.636;10.012;2023-04-03T18:11:52;3.77;;;1.20;;
20857;SDS011;10589;53.636;10.012;2023-04-03T18:14:21;4.30;;;1.60;;
20857;SDS011;10589;53.636;10.012;2023-04-03T18:16:49;4.00;;;1.63;;
20857;SDS011;10589;53.636;10.012;2023-04-03T18:19:15;9.40;;;2.97;;
20857;SDS011;10589;53.636;10.012;2023-04-03T18:21:41;8.30;;;2.67;;
20857;SDS011;10589;53.636;10.012;2023-04-03T18:24:11;4.70;;;2.20;;
20857;SDS011;10589;53.636;10.012;2023-04-03T18:26:39;3.13;;;1.60;;
20857;SDS011;10589;53.636;10.012;2023-04-03T18:29:07;6.37;;;1.50;;
20857;SDS011;10589;53.636;10.012;2023-04-03T18:31:34;4.80;;;1.67;;
20857;SDS011;10589;53.636;10.012;2023-04-03T18:34:01;3.40;;;1.70;;
20857;SDS011;10589;53.636;10.012;2023-04-03T18:36:28;7.07;;;2.20;;
20857;SDS011;10589;53.636;10.012;2023-04-03T18:38:54;5.40;;;2.27;;
20857;SDS011;10589;53.636;10.012;2023-04-03T18:41:20;2.93;;;1.43;;
20857;SDS011;10589;53.636;10.012;2023-04-03T18:43:52;3.27;;;1.77;;
20857;SDS011;10589;53.636;10.012;2023-04-03T18:46:20;5.30;;;2.63;;
20857;SDS011;10589;53.636;10.012;2023-04-03T18:48:46;3.37;;;2.03;;
20857;SDS011;10589;53.636;10.012;2023-04-03T18:51:12;7.07;;;3.07;;
20857;SDS011;10589;53.636;10.012;2023-04-03T18:53:38;3.30;;;2.00;;
20857;SDS011;10589;53.636;10.012;2023-04-03T18:56:04;4.53;;;2.30;;
20857;SDS011;10589;53.636;10.012;2023-04-03T18:58:30;6.60;;;3.43;;
20857;SDS011;10589;53.636;10.012;2023-04-03T19:00:56;7.17;;;3.00;;
20857;SDS011;10589;53.636;10.012;2023-04-03T19:03:23;8.10;;;3.57;;
20857;SDS011;10589;53.636;10.012;2023-04-03T19:05:48;6.27;;;3.50;;
20857;SDS011;10589;53.636;10.012;2023-04-03T19:08:14;7.93;;;3.60;;
20857;SDS011;10589;53.636;10.012;2023-04-03T19:10:40;7.63;;;3.17;;
20857;SDS011;10589;53.636;10.012;2023-04-03T19:13:05;7.53;;;3.80;;
20857;SDS011;10589;53.636;10.012;2023-04-03T19:15:31;7.33;;;3.93;;
20857;SDS011;10589;53.636;10.012;2023-04-03T19:17:57;6.67;;;3.00;;
20857;SDS011;10589;53.636;10.012;2023-04-03T19:20:22;4.90;;;2.77;;
20857;SDS011;10589;53.636;10.012;2023-04-03T19:22:48;4.80;;;2.53;;
20857;SDS011;10589;53.636;10.012;2023-04-03T19:25:13;5.30;;;2.87;;
20857;SDS011;10589;53.636;10.012;2023-04-03T19:27:39;5.80;;;2.73;;
20857;SDS011;10589;53.636;10.012;2023-04-03T19:30:06;6.80;;;3.47;;
20857;SDS011;10589;53.636;10.012;2023-04-03T19:32:32;7.67;;;2.80;;
20857;SDS011;10589;53.636;10.012;2023-04-03T19:34:58;6.70;;;2.90;;
20857;SDS011;10589;53.636;10.012;2023-04-03T19:37:24;4.70;;;2.57;;
20857;SDS011;10589;53.636;10.012;2023-04-03T19:39:51;3.70;;;2.30;;
20857;SDS011;10589;53.636;10.012;2023-04-03T19:42:17;4.33;;;2.20;;
20857;SDS011;10589;53.636;10.012;2023-04-03T19:44:43;5.83;;;1.83;;
20857;SDS011;10589;53.636;10.012;2023-04-03T19:47:10;4.93;;;1.80;;
20857;SDS011;10589;53.636;10.012;2023-04-03T19:49:37;4.67;;;1.90;;
20857;SDS011;10589;53.636;10.012;2023-04-03T19:52:03;6.37;;;2.00;;
20857;SDS011;10589;53.636;10.012;2023-04-03T19:54:29;5.67;;;1.63;;
20857;SDS011;10589;53.636;10.012;2023-04-03T19:56:55;4.67;;;1.90;;
20857;SDS011;10589;53.636;10.012;2023-04-03T19:59:22;6.53;;;1.70;;
20857;SDS011;10589;53.636;10.012;2023-04-03T20:01:48;3.13;;;1.77;;
20857;SDS011;10589;53.636;10.012;2023-04-03T20:04:14;4.17;;;1.57;;
20857;SDS011;10589;53.636;10.012;2023-04-03T20:06:40;4.10;;;1.60;;
20857;SDS011;10589;53.636;10.012;2023-04-03T20:09:05;4.10;;;1.97;;